Time;durP1;ratioP1;P1;durP2;ratioP2;P2;SDS_P1;SDS_P2;PMS_P1;PMS_P2;Temp;Humidity;BMP_temperature;BMP_pressure;BME280_temperature;BME280_humidity;BME280_pressure;Samples;Min_cycle;Max_cycle;Signal;HPM_P1;HPM_P2
2023/07/30 00:01:08;;;;;;;3.17;2.10;;;;;;;;;;4981624;28;20413;-86
2023/07/30 00:03:34;;;;;;;2.77;1.93;;;;;;;;;;4994428;28;20423;-87
2023/07/30 00:06:00;;;;;;;2.30;1.50;;;;;;;;;;4983694;28;20510;-86
2023/07/30 00:08:26;;;;;;;2.83;1.37;;;;;;;;;;4981561;28;20429;-86
2023/07/30 00:10:52;;;;;;;2.20;1.30;;;;;;;;;;4993637;28;20444;-86
2023/07/30 00:13:18;;;;;;;1.73;1.20;;;;;;;;;;4984543;28;21122;-86
2023/07/30 00:15:46;;;;;;;1.37;0.87;;;;;;;;;;4987133;28;20539;-87
2023/07/30 00:18:12;;;;;;;2.40;1.70;;;;;;;;;;4998277;28;20459;-86
2023/07/30 00:20:38;;;;;;;2.37;1.50;;;;;;;;;;5002545;28;20452;-86
2023/07/30 00:23:04;;;;;;;2.83;1.30;;;;;;;;;;5000995;28;20439;-87
2023/07/30 00:25:49;;;;;;;2.23;1.60;;;;;;;;;;5021019;28;20459;-87
2023/07/30 00:28:15;;;;;;;3.43;1.30;;;;;;;;;;5017995;28;20447;-86
2023/07/30 00:30:41;;;;;;;3.87;1.70;;;;;;;;;;5001695;28;20439;-86
2023/07/30 00:33:07;;;;;;;1.93;1.10;;;;;;;;;;5023163;28;20443;-86
2023/07/30 00:35:33;;;;;;;2.30;1.70;;;;;;;;;;5013107;28;20425;-86
2023/07/30 00:37:59;;;;;;;2.67;1.87;;;;;;;;;;5016325;28;20424;-86
2023/07/30 00:40:25;;;;;;;2.57;1.80;;;;;;;;;;5014009;28;20397;-87
2023/07/30 00:42:51;;;;;;;2.20;1.77;;;;;;;;;;5029002;28;20428;-85
2023/07/30 00:45:17;;;;;;;2.90;1.93;;;;;;;;;;5004164;28;20793;-88
2023/07/30 00:47:43;;;;;;;2.80;2.23;;;;;;;;;;5005355;28;20466;-87
2023/07/30 00:50:09;;;;;;;5.47;2.93;;;;;;;;;;5006567;28;20911;-87
2023/07/30 00:52:35;;;;;;;5.20;3.57;;;;;;;;;;5003280;28;20479;-87
2023/07/30 00:55:04;;;;;;;3.50;2.60;;;;;;;;;;5005262;28;20424;-87
2023/07/30 00:57:31;;;;;;;5.60;3.00;;;;;;;;;;5011259;28;20522;-86
2023/07/30 00:59:57;;;;;;;4.90;3.80;;;;;;;;;;5003876;28;20439;-87
2023/07/30 01:02:23;;;;;;;7.50;4.30;;;;;;;;;;5012842;28;20444;-86
2023/07/30 01:04:49;;;;;;;7.47;4.23;;;;;;;;;;5020666;28;20420;-88
2023/07/30 01:07:15;;;;;;;4.13;3.40;;;;;;;;;;5006168;28;20908;-86
2023/07/30 01:09:42;;;;;;;6.23;3.80;;;;;;;;;;5023124;28;20427;-86
2023/07/30 01:12:08;;;;;;;4.83;3.80;;;;;;;;;;5007614;28;20519;-86
2023/07/30 01:14:34;;;;;;;4.17;3.00;;;;;;;;;;5006236;28;20786;-87
2023/07/30 01:17:00;;;;;;;4.30;3.60;;;;;;;;;;5006944;28;20489;-86
2023/07/30 01:19:26;;;;;;;7.30;3.93;;;;;;;;;;4996038;28;20445;-86
2023/07/30 01:21:52;;;;;;;4.17;3.43;;;;;;;;;;5020876;28;20436;-86
2023/07/30 01:24:18;;;;;;;4.27;3.60;;;;;;;;;;5020642;28;20442;-85
2023/07/30 01:26:47;;;;;;;13.90;6.17;;;;;;;;;;5023973;28;20459;-87
2023/07/30 01:29:55;;;;;;;;;;;;;;;;;;;;;
2023/07/30 01:32:26;;;;;;;5.07;4.57;;;;;;;;;;4978220;28;21036;-87
2023/07/30 01:34:53;;;;;;;7.00;4.53;;;;;;;;;;4966699;28;20545;-86
2023/07/30 01:37:19;;;;;;;5.00;4.00;;;;;;;;;;4985255;28;20432;-87
2023/07/30 01:39:45;;;;;;;6.40;4.20;;;;;;;;;;4972770;28;20421;-86
2023/07/30 01:42:14;;;;;;;7.33;4.30;;;;;;;;;;4966395;28;20455;-86
2023/07/30 01:44:40;;;;;;;6.40;4.30;;;;;;;;;;4962076;28;20444;-86
2023/07/30 01:47:06;;;;;;;4.20;3.60;;;;;;;;;;4966200;28;20470;-87
2023/07/30 01:49:32;;;;;;;4.63;3.40;;;;;;;;;;4972312;28;21023;-86
2023/07/30 01:51:58;;;;;;;4.63;3.20;;;;;;;;;;4953933;28;20432;-87
2023/07/30 01:54:24;;;;;;;4.70;4.00;;;;;;;;;;4978549;28;20940;-86
2023/07/30 01:56:50;;;;;;;8.60;3.40;;;;;;;;;;5001503;28;20428;-88
2023/07/30 01:59:16;;;;;;;5.47;2.53;;;;;;;;;;4995765;28;20932;-87
2023/07/30 02:01:42;;;;;;;2.77;2.57;;;;;;;;;;5007412;28;20440;-86
2023/07/30 02:04:08;;;;;;;3.77;3.37;;;;;;;;;;4966069;28;20444;-87
2023/07/30 02:06:34;;;;;;;4.93;3.53;;;;;;;;;;4965449;28;20948;-86
2023/07/30 02:09:00;;;;;;;3.80;3.23;;;;;;;;;;4966820;28;20455;-87
2023/07/30 02:11:26;;;;;;;4.27;3.37;;;;;;;;;;4967629;28;20512;-87
2023/07/30 02:13:52;;;;;;;3.77;2.83;;;;;;;;;;4962670;28;21060;-87
2023/07/30 02:16:18;;;;;;;8.27;4.50;;;;;;;;;;4981261;28;20473;-87
2023/07/30 02:18:44;;;;;;;13.70;6.67;;;;;;;;;;4953745;28;20449;-87
2023/07/30 02:21:10;;;;;;;18.13;8.13;;;;;;;;;;4999283;28;20448;-87
2023/07/30 02:23:36;;;;;;;6.10;3.30;;;;;;;;;;4964952;28;20429;-87
2023/07/30 02:26:02;;;;;;;5.73;3.40;;;;;;;;;;4965535;28;20546;-87
2023/07/30 02:28:28;;;;;;;4.20;2.80;;;;;;;;;;4953027;28;20410;-87
2023/07/30 02:30:55;;;;;;;4.93;2.73;;;;;;;;;;4974343;28;20425;-86
2023/07/30 02:33:21;;;;;;;3.90;3.50;;;;;;;;;;4982188;28;20475;-87
2023/07/30 02:35:50;;;;;;;3.93;2.97;;;;;;;;;;4942388;29;20469;-87
2023/07/30 02:38:19;;;;;;;4.13;3.47;;;;;;;;;;4894784;29;20415;-87
2023/07/30 02:40:45;;;;;;;4.53;2.93;;;;;;;;;;4924248;29;20546;-87
2023/07/30 02:43:11;;;;;;;3.50;2.73;;;;;;;;;;4940982;28;20989;-87
2023/07/30 02:45:39;;;;;;;5.70;3.20;;;;;;;;;;4942093;29;20494;-88
2023/07/30 02:48:05;;;;;;;3.50;3.20;;;;;;;;;;4926092;29;20434;-87
2023/07/30 02:50:31;;;;;;;4.43;3.23;;;;;;;;;;4927974;29;21022;-86
2023/07/30 02:52:57;;;;;;;3.10;2.80;;;;;;;;;;4944483;29;20462;-87
2023/07/30 02:55:24;;;;;;;2.90;2.23;;;;;;;;;;4943801;29;20841;-87
2023/07/30 02:57:50;;;;;;;5.27;3.50;;;;;;;;;;4946465;29;20537;-87
2023/07/30 03:00:16;;;;;;;4.47;3.47;;;;;;;;;;4943709;29;20430;-86
2023/07/30 03:02:42;;;;;;;3.57;3.17;;;;;;;;;;4929039;29;20445;-87
2023/07/30 03:05:08;;;;;;;3.73;3.10;;;;;;;;;;4943670;28;20986;-86
2023/07/30 03:07:35;;;;;;;3.47;2.77;;;;;;;;;;4981398;28;20509;-86
2023/07/30 03:10:01;;;;;;;11.13;3.70;;;;;;;;;;4978038;28;20499;-87
2023/07/30 03:12:27;;;;;;;5.53;2.80;;;;;;;;;;4959020;28;20449;-86
2023/07/30 03:14:53;;;;;;;4.00;3.60;;;;;;;;;;4999802;28;20441;-86
2023/07/30 03:17:19;;;;;;;4.20;3.60;;;;;;;;;;4962653;28;20429;-86
2023/07/30 03:19:45;;;;;;;5.40;2.87;;;;;;;;;;4972364;28;20445;-87
2023/07/30 03:22:11;;;;;;;8.40;3.23;;;;;;;;;;4950526;28;20422;-87
2023/07/30 03:24:36;;;;;;;3.50;3.07;;;;;;;;;;4964554;28;20413;-86
2023/07/30 03:27:02;;;;;;;6.93;3.47;;;;;;;;;;4968614;28;20504;-86
2023/07/30 03:29:30;;;;;;;4.00;2.77;;;;;;;;;;4962645;28;20489;-87
2023/07/30 03:31:56;;;;;;;3.03;2.70;;;;;;;;;;4958697;28;20999;-86
2023/07/30 03:34:22;;;;;;;3.00;2.57;;;;;;;;;;4945404;28;20461;-86
2023/07/30 03:36:48;;;;;;;3.23;2.90;;;;;;;;;;4962894;28;20480;-86
2023/07/30 03:39:15;;;;;;;6.40;3.10;;;;;;;;;;4965927;28;20932;-87
2023/07/30 03:41:43;;;;;;;4.67;3.47;;;;;;;;;;4972245;28;20457;-87
2023/07/30 03:44:09;;;;;;;3.70;2.93;;;;;;;;;;4965740;28;20441;-88
2023/07/30 03:46:35;;;;;;;5.23;3.50;;;;;;;;;;4982649;28;20461;-87
2023/07/30 03:49:01;;;;;;;3.50;2.90;;;;;;;;;;4968160;28;20428;-87
2023/07/30 03:51:27;;;;;;;3.43;3.00;;;;;;;;;;4981474;28;20440;-87
2023/07/30 03:53:53;;;;;;;4.50;3.20;;;;;;;;;;4964332;28;20433;-87
2023/07/30 03:56:19;;;;;;;4.23;2.80;;;;;;;;;;4980979;28;20424;-87
2023/07/30 03:58:45;;;;;;;4.27;3.50;;;;;;;;;;4980876;28;20447;-86
2023/07/30 04:01:12;;;;;;;3.80;3.40;;;;;;;;;;4964859;28;20425;-87
2023/07/30 04:03:38;;;;;;;4.70;3.17;;;;;;;;;;4999191;28;20448;-87
2023/07/30 04:06:04;;;;;;;4.57;2.90;;;;;;;;;;4965909;28;20471;-87
2023/07/30 04:08:30;;;;;;;3.83;3.10;;;;;;;;;;4968595;28;20433;-88
2023/07/30 04:10:56;;;;;;;3.97;3.60;;;;;;;;;;4956514;28;20577;-87
2023/07/30 04:13:22;;;;;;;5.70;3.60;;;;;;;;;;4957844;28;20536;-88
2023/07/30 04:15:49;;;;;;;4.10;3.13;;;;;;;;;;4958590;28;20414;-88
2023/07/30 04:18:15;;;;;;;4.20;3.30;;;;;;;;;;4983940;28;20453;-88
2023/07/30 04:20:41;;;;;;;5.50;3.60;;;;;;;;;;4984528;28;20544;-88
2023/07/30 04:23:07;;;;;;;4.90;3.30;;;;;;;;;;4957957;28;20429;-89
2023/07/30 04:25:33;;;;;;;3.70;2.60;;;;;;;;;;4977634;28;20428;-88
2023/07/30 04:27:59;;;;;;;4.20;3.33;;;;;;;;;;4967345;28;20447;-88
2023/07/30 04:30:25;;;;;;;3.47;2.80;;;;;;;;;;5000453;28;20924;-88
2023/07/30 04:32:51;;;;;;;3.37;2.77;;;;;;;;;;4969451;28;20416;-88
2023/07/30 04:35:17;;;;;;;4.07;2.90;;;;;;;;;;4967362;28;20421;-88
2023/07/30 04:37:43;;;;;;;3.90;2.30;;;;;;;;;;5002993;28;20517;-88
2023/07/30 04:40:09;;;;;;;4.10;3.10;;;;;;;;;;5004563;28;21006;-88
2023/07/30 04:42:35;;;;;;;5.20;3.53;;;;;;;;;;5027608;28;20675;-88
2023/07/30 04:45:01;;;;;;;3.53;2.50;;;;;;;;;;5003896;28;20915;-89
2023/07/30 04:47:27;;;;;;;3.07;2.47;;;;;;;;;;5004941;28;20535;-88
2023/07/30 04:49:53;;;;;;;2.90;2.57;;;;;;;;;;5004502;28;20430;-88
2023/07/30 04:52:19;;;;;;;5.03;2.20;;;;;;;;;;5024047;28;20455;-88
2023/07/30 04:54:45;;;;;;;6.10;2.77;;;;;;;;;;5017048;28;20424;-88
2023/07/30 04:57:11;;;;;;;3.53;2.93;;;;;;;;;;5004389;28;20443;-87
2023/07/30 04:59:37;;;;;;;3.60;2.43;;;;;;;;;;5035293;28;20423;-88
2023/07/30 05:02:03;;;;;;;5.70;3.17;;;;;;;;;;5001336;28;20435;-88
2023/07/30 05:04:29;;;;;;;4.00;2.87;;;;;;;;;;5012324;28;20987;-88
2023/07/30 05:06:55;;;;;;;3.70;3.10;;;;;;;;;;5001101;28;20459;-88
2023/07/30 05:09:21;;;;;;;3.17;2.87;;;;;;;;;;5002510;28;20476;-88
2023/07/30 05:11:47;;;;;;;6.53;2.63;;;;;;;;;;5001507;28;21022;-88
2023/07/30 05:14:13;;;;;;;4.30;2.50;;;;;;;;;;5003548;28;20432;-89
2023/07/30 05:16:41;;;;;;;3.63;2.37;;;;;;;;;;5023464;28;20396;-88
2023/07/30 05:19:07;;;;;;;3.87;3.50;;;;;;;;;;5023359;28;20440;-88
2023/07/30 05:21:33;;;;;;;4.63;2.87;;;;;;;;;;4998965;28;20576;-88
2023/07/30 05:23:59;;;;;;;5.13;3.27;;;;;;;;;;4986194;28;20440;-89
2023/07/30 05:26:25;;;;;;;2.90;2.60;;;;;;;;;;4990149;28;20491;-88
2023/07/30 05:28:51;;;;;;;3.97;3.00;;;;;;;;;;4995808;28;20436;-89
2023/07/30 05:31:17;;;;;;;6.00;3.17;;;;;;;;;;4985163;28;20483;-87
2023/07/30 05:33:43;;;;;;;3.53;3.23;;;;;;;;;;4985836;28;20425;-88
2023/07/30 05:36:09;;;;;;;4.00;2.80;;;;;;;;;;5008799;28;20435;-89
2023/07/30 05:38:35;;;;;;;2.70;2.50;;;;;;;;;;4986253;28;20436;-88
2023/07/30 05:41:01;;;;;;;3.43;2.53;;;;;;;;;;5002492;28;20442;-88
2023/07/30 05:43:27;;;;;;;4.83;3.00;;;;;;;;;;4987866;28;20407;-87
2023/07/30 05:45:53;;;;;;;4.90;3.47;;;;;;;;;;4983521;28;20468;-88
2023/07/30 05:48:19;;;;;;;3.77;3.20;;;;;;;;;;4990388;28;20452;-88
2023/07/30 05:50:45;;;;;;;3.77;3.37;;;;;;;;;;4993196;28;20409;-87
2023/07/30 05:53:12;;;;;;;4.80;3.27;;;;;;;;;;4968343;28;20416;-86
2023/07/30 05:55:38;;;;;;;3.37;2.70;;;;;;;;;;4970138;28;20409;-86
2023/07/30 05:58:04;;;;;;;3.47;3.00;;;;;;;;;;4976170;28;20419;-86
2023/07/30 06:00:30;;;;;;;6.40;3.40;;;;;;;;;;4986731;28;20432;-86
2023/07/30 06:02:57;;;;;;;3.70;3.00;;;;;;;;;;4990096;28;20788;-87
2023/07/30 06:05:25;;;;;;;4.53;3.40;;;;;;;;;;5002745;28;20437;-89
2023/07/30 06:07:50;;;;;;;5.00;3.67;;;;;;;;;;5003309;28;20458;-87
2023/07/30 06:10:16;;;;;;;4.50;3.73;;;;;;;;;;5023423;28;20440;-87
2023/07/30 06:12:42;;;;;;;4.23;3.10;;;;;;;;;;5035394;28;20424;-86
2023/07/30 06:15:10;;;;;;;4.83;3.10;;;;;;;;;;5006103;28;20479;-87
2023/07/30 06:17:35;;;;;;;3.50;3.20;;;;;;;;;;5030261;28;20789;-87
2023/07/30 06:20:02;;;;;;;3.20;2.80;;;;;;;;;;5014888;28;20437;-86
2023/07/30 06:22:30;;;;;;;4.70;3.27;;;;;;;;;;5011427;28;20432;-87
2023/07/30 06:24:56;;;;;;;3.20;2.90;;;;;;;;;;5039123;28;20803;-89
2023/07/30 06:27:22;;;;;;;3.13;2.70;;;;;;;;;;4995494;28;20469;-87
2023/07/30 06:29:48;;;;;;;4.57;2.60;;;;;;;;;;4996806;28;20436;-86
2023/07/30 06:32:14;;;;;;;10.80;3.10;;;;;;;;;;4994605;28;20428;-86
2023/07/30 06:34:40;;;;;;;4.37;2.67;;;;;;;;;;4994310;28;20790;-89
2023/07/30 06:37:06;;;;;;;3.30;2.43;;;;;;;;;;5001424;28;20519;-87
2023/07/30 06:39:32;;;;;;;3.90;2.97;;;;;;;;;;5003754;28;20835;-86
2023/07/30 06:41:58;;;;;;;2.93;2.57;;;;;;;;;;4998710;28;20423;-88
2023/07/30 06:44:25;;;;;;;2.90;2.63;;;;;;;;;;5004656;28;20431;-88
2023/07/30 06:46:51;;;;;;;2.43;2.23;;;;;;;;;;4997528;28;20552;-88
2023/07/30 06:49:17;;;;;;;3.10;2.80;;;;;;;;;;5018749;28;20436;-88
2023/07/30 06:51:43;;;;;;;2.73;2.30;;;;;;;;;;5000479;28;20448;-87
2023/07/30 06:54:09;;;;;;;4.33;1.93;;;;;;;;;;5020722;28;20484;-86
2023/07/30 06:56:35;;;;;;;2.40;2.10;;;;;;;;;;5000396;28;20472;-87
2023/07/30 06:59:02;;;;;;;2.27;1.60;;;;;;;;;;4994471;28;20511;-88
2023/07/30 07:01:29;;;;;;;4.03;2.10;;;;;;;;;;5003568;28;20414;-87
2023/07/30 07:03:55;;;;;;;2.80;2.30;;;;;;;;;;4998699;28;20436;-87
2023/07/30 07:06:21;;;;;;;2.73;1.87;;;;;;;;;;5001264;28;20463;-86
2023/07/30 07:08:47;;;;;;;3.67;2.30;;;;;;;;;;5011101;28;20432;-86
2023/07/30 07:11:13;;;;;;;3.20;2.20;;;;;;;;;;5002606;28;20452;-88
2023/07/30 07:13:39;;;;;;;2.30;1.63;;;;;;;;;;5019626;28;20432;-87
2023/07/30 07:16:05;;;;;;;2.37;1.97;;;;;;;;;;4998328;28;20448;-88
2023/07/30 07:18:32;;;;;;;2.33;1.53;;;;;;;;;;4998316;28;20443;-88
2023/07/30 07:20:58;;;;;;;2.10;1.67;;;;;;;;;;4989678;28;20440;-87
2023/07/30 07:23:24;;;;;;;1.93;1.60;;;;;;;;;;5000780;28;20444;-87
2023/07/30 07:25:50;;;;;;;2.53;1.70;;;;;;;;;;5002314;28;20459;-87
2023/07/30 07:28:18;;;;;;;2.80;1.77;;;;;;;;;;5005944;28;20420;-87
2023/07/30 07:30:44;;;;;;;2.23;2.00;;;;;;;;;;5013524;28;20448;-87
2023/07/30 07:33:16;;;;;;;3.13;1.50;;;;;;;;;;4996810;28;20441;-90
2023/07/30 07:35:42;;;;;;;1.70;1.57;;;;;;;;;;5019028;28;20850;-87
2023/07/30 07:38:09;;;;;;;2.50;1.87;;;;;;;;;;5003686;28;20420;-87
2023/07/30 07:40:41;;;;;;;3.00;2.23;;;;;;;;;;5005327;28;20425;-86
2023/07/30 07:43:07;;;;;;;2.47;1.83;;;;;;;;;;5022382;28;20425;-86
2023/07/30 07:45:33;;;;;;;2.20;1.40;;;;;;;;;;5014269;28;20452;-89
2023/07/30 07:48:01;;;;;;;2.03;1.43;;;;;;;;;;5001955;28;20419;-88
2023/07/30 07:50:27;;;;;;;2.17;1.77;;;;;;;;;;5009759;28;20438;-88
2023/07/30 07:52:53;;;;;;;2.10;1.70;;;;;;;;;;5033855;28;20962;-88
2023/07/30 07:55:19;;;;;;;2.27;1.80;;;;;;;;;;4994226;28;20499;-88
2023/07/30 07:57:45;;;;;;;2.27;2.00;;;;;;;;;;4990780;28;21203;-87
2023/07/30 08:00:11;;;;;;;2.33;1.50;;;;;;;;;;5009627;28;20417;-87
2023/07/30 08:02:37;;;;;;;2.20;1.70;;;;;;;;;;4997495;28;20452;-88
2023/07/30 08:05:03;;;;;;;2.17;1.67;;;;;;;;;;5031311;28;20872;-87
2023/07/30 08:07:29;;;;;;;2.27;1.97;;;;;;;;;;5000777;28;20471;-87
2023/07/30 08:09:55;;;;;;;3.40;1.77;;;;;;;;;;4996095;28;20425;-87
2023/07/30 08:12:21;;;;;;;2.40;1.93;;;;;;;;;;4976239;28;20542;-87
2023/07/30 08:14:47;;;;;;;3.13;1.83;;;;;;;;;;4957027;28;20976;-86
2023/07/30 08:17:13;;;;;;;3.03;1.63;;;;;;;;;;4962400;28;20426;-87
2023/07/30 08:19:39;;;;;;;2.57;1.60;;;;;;;;;;4963133;28;20461;-87
2023/07/30 08:22:06;;;;;;;3.23;1.83;;;;;;;;;;4963094;28;20426;-87
2023/07/30 08:24:32;;;;;;;3.43;2.23;;;;;;;;;;4965111;28;20441;-88
2023/07/30 08:26:58;;;;;;;2.60;1.37;;;;;;;;;;4961456;28;20466;-87
2023/07/30 08:29:24;;;;;;;3.40;2.30;;;;;;;;;;4955209;28;20429;-87
2023/07/30 08:31:50;;;;;;;2.30;1.67;;;;;;;;;;4958573;28;20441;-87
2023/07/30 08:34:16;;;;;;;3.20;1.93;;;;;;;;;;4961567;28;21022;-87
2023/07/30 08:36:42;;;;;;;3.67;1.90;;;;;;;;;;4949005;28;20441;-88
2023/07/30 08:39:09;;;;;;;4.37;1.87;;;;;;;;;;4965771;28;20442;-87
2023/07/30 08:41:35;;;;;;;1.77;1.30;;;;;;;;;;4947546;28;20449;-87
2023/07/30 08:44:01;;;;;;;2.47;1.90;;;;;;;;;;4993740;28;20435;-87
2023/07/30 08:46:27;;;;;;;2.00;1.80;;;;;;;;;;4996038;28;20447;-87
2023/07/30 08:48:54;;;;;;;2.40;2.20;;;;;;;;;;5000084;28;20477;-87
2023/07/30 08:51:20;;;;;;;2.50;1.47;;;;;;;;;;4997674;28;20770;-86
2023/07/30 08:53:46;;;;;;;2.40;2.10;;;;;;;;;;4996835;28;20476;-88
2023/07/30 08:56:12;;;;;;;4.50;2.10;;;;;;;;;;4998637;28;20448;-88
2023/07/30 08:58:38;;;;;;;3.17;2.17;;;;;;;;;;5005606;28;20440;-88
2023/07/30 09:01:07;;;;;;;2.07;1.70;;;;;;;;;;4991166;28;20920;-86
2023/07/30 09:03:33;;;;;;;2.40;2.20;;;;;;;;;;5004268;28;20441;-89
2023/07/30 09:05:59;;;;;;;3.17;1.67;;;;;;;;;;5000623;28;20488;-89
2023/07/30 09:08:25;;;;;;;2.53;2.03;;;;;;;;;;5002663;28;20848;-87
2023/07/30 09:10:51;;;;;;;2.67;1.80;;;;;;;;;;5008830;28;20412;-87
2023/07/30 09:13:23;;;;;;;4.80;1.93;;;;;;;;;;5016830;28;20958;-87
2023/07/30 09:15:50;;;;;;;8.37;3.13;;;;;;;;;;5003135;28;20439;-87
2023/07/30 09:18:18;;;;;;;3.73;2.17;;;;;;;;;;5011657;28;20417;-87
2023/07/30 09:20:44;;;;;;;3.60;2.53;;;;;;;;;;4998980;28;20425;-87
2023/07/30 09:23:10;;;;;;;2.53;2.20;;;;;;;;;;5017146;28;20432;-87
2023/07/30 09:25:36;;;;;;;3.20;1.93;;;;;;;;;;5037301;28;20440;-87
2023/07/30 09:28:03;;;;;;;6.77;2.23;;;;;;;;;;5003988;28;20514;-88
2023/07/30 09:30:29;;;;;;;2.30;1.97;;;;;;;;;;5030218;28;20467;-87
2023/07/30 09:32:55;;;;;;;2.83;2.20;;;;;;;;;;5006430;28;20416;-87
2023/07/30 09:35:22;;;;;;;3.77;2.23;;;;;;;;;;5012981;28;20404;-88
2023/07/30 09:37:48;;;;;;;4.50;2.00;;;;;;;;;;5026127;28;20445;-87
2023/07/30 09:40:15;;;;;;;2.50;2.00;;;;;;;;;;5004153;28;20447;-88
2023/07/30 09:42:45;;;;;;;3.50;2.33;;;;;;;;;;5005567;28;20439;-87
2023/07/30 09:45:18;;;;;;;4.17;2.37;;;;;;;;;;5018961;28;20799;-87
2023/07/30 09:47:46;;;;;;;3.07;1.90;;;;;;;;;;5020106;28;20559;-87
2023/07/30 09:50:12;;;;;;;3.83;2.50;;;;;;;;;;5038913;28;20433;-89
2023/07/30 09:52:38;;;;;;;3.03;2.40;;;;;;;;;;5019307;28;20954;-87
2023/07/30 09:55:06;;;;;;;2.37;1.97;;;;;;;;;;5000415;28;20492;-87
2023/07/30 09:57:32;;;;;;;2.90;2.33;;;;;;;;;;5004716;28;20443;-88
2023/07/30 09:59:58;;;;;;;5.20;2.40;;;;;;;;;;5030874;28;20535;-90
2023/07/30 10:02:25;;;;;;;3.43;2.93;;;;;;;;;;4997018;28;20510;-89
2023/07/30 10:04:51;;;;;;;2.60;2.00;;;;;;;;;;5002888;28;20439;-90
2023/07/30 10:07:17;;;;;;;5.90;2.57;;;;;;;;;;5003153;28;20903;-88
2023/07/30 10:09:47;;;;;;;3.47;2.07;;;;;;;;;;5009920;28;20943;-89
2023/07/30 10:12:17;;;;;;;2.80;2.00;;;;;;;;;;4978728;28;20956;-90
2023/07/30 10:14:43;;;;;;;3.73;2.90;;;;;;;;;;4998904;28;20936;-89
2023/07/30 10:17:10;;;;;;;3.60;2.80;;;;;;;;;;5021939;28;20421;-88
2023/07/30 10:19:36;;;;;;;4.17;3.40;;;;;;;;;;5037506;28;20525;-89
2023/07/30 10:22:14;;;;;;;2.73;2.43;;;;;;;;;;5005299;28;20428;-89
2023/07/30 10:24:40;;;;;;;4.17;2.53;;;;;;;;;;5022151;28;20875;-90
2023/07/30 10:27:07;;;;;;;9.13;2.73;;;;;;;;;;5011922;28;20970;-89
2023/07/30 10:29:35;;;;;;;4.57;2.27;;;;;;;;;;5009579;28;20439;-89
2023/07/30 10:32:02;;;;;;;3.20;2.27;;;;;;;;;;5037177;28;20440;-88
2023/07/30 10:34:43;;;;;;;3.40;2.43;;;;;;;;;;5036012;28;20432;-90
2023/07/30 10:37:12;;;;;;;3.50;2.20;;;;;;;;;;5005399;28;20439;-91
2023/07/30 10:39:38;;;;;;;2.80;1.97;;;;;;;;;;5011508;28;20433;-92
2023/07/30 10:42:05;;;;;;;6.77;2.30;;;;;;;;;;5013743;28;20448;-89
2023/07/30 10:44:36;;;;;;;3.17;2.30;;;;;;;;;;5039133;28;20508;-92
2023/07/30 10:47:03;;;;;;;2.90;2.10;;;;;;;;;;5014754;28;20452;-93
2023/07/30 10:49:29;;;;;;;4.63;2.33;;;;;;;;;;4996388;28;20429;-91
2023/07/30 10:51:57;;;;;;;4.10;3.17;;;;;;;;;;5004830;28;20460;-90
2023/07/30 10:54:24;;;;;;;3.40;2.80;;;;;;;;;;4998634;28;20463;-91
2023/07/30 10:56:50;;;;;;;3.67;2.70;;;;;;;;;;5010347;28;20423;-90
2023/07/30 10:59:16;;;;;;;3.50;2.07;;;;;;;;;;5003510;28;20937;-92
2023/07/30 11:01:43;;;;;;;3.13;2.00;;;;;;;;;;4977365;28;20425;-91
2023/07/30 11:04:10;;;;;;;3.40;2.47;;;;;;;;;;5000622;28;20409;-90
2023/07/30 11:06:38;;;;;;;7.20;2.33;;;;;;;;;;4988568;28;20540;-91
2023/07/30 11:09:04;;;;;;;3.70;2.50;;;;;;;;;;4986635;28;20867;-89
2023/07/30 11:11:32;;;;;;;3.40;2.30;;;;;;;;;;4993747;28;20425;-87
2023/07/30 11:13:59;;;;;;;3.97;2.13;;;;;;;;;;4977403;28;20430;-88
2023/07/30 11:16:25;;;;;;;3.40;2.43;;;;;;;;;;4993726;28;20451;-90
2023/07/30 11:18:51;;;;;;;3.50;2.07;;;;;;;;;;4995983;28;20421;-91
2023/07/30 11:21:19;;;;;;;3.13;1.93;;;;;;;;;;5002274;28;20460;-91
2023/07/30 11:23:45;;;;;;;8.90;2.83;;;;;;;;;;4984385;28;20445;-91
2023/07/30 11:26:18;;;;;;;3.20;2.10;;;;;;;;;;4986670;28;20456;-88
2023/07/30 11:28:44;;;;;;;2.83;2.20;;;;;;;;;;5000199;28;20856;-90
2023/07/30 11:31:14;;;;;;;2.60;2.20;;;;;;;;;;5040508;28;20404;-93
2023/07/30 11:33:44;;;;;;;3.20;1.70;;;;;;;;;;5012385;28;20951;-89
2023/07/30 11:36:55;;;;;;;3.57;2.17;;;;;;;;;;5017722;28;20447;-93
2023/07/30 11:39:42;;;;;;;3.00;2.17;;;;;;;;;;5036621;28;20416;-91
2023/07/30 11:42:17;;;;;;;3.07;2.37;;;;;;;;;;5019804;28;20431;-92
2023/07/30 11:44:43;;;;;;;2.53;1.97;;;;;;;;;;4991982;28;20447;-90
2023/07/30 11:47:09;;;;;;;4.07;2.23;;;;;;;;;;4972817;28;20559;-91
2023/07/30 11:49:37;;;;;;;3.90;2.50;;;;;;;;;;4965934;28;20464;-89
2023/07/30 11:52:11;;;;;;;3.53;2.00;;;;;;;;;;4975176;28;20524;-91
2023/07/30 11:54:38;;;;;;;2.80;2.30;;;;;;;;;;4965790;28;20441;-91
2023/07/30 11:57:04;;;;;;;4.70;2.00;;;;;;;;;;4971560;28;20437;-90
2023/07/30 11:59:31;;;;;;;2.73;2.03;;;;;;;;;;4929569;29;20951;-92
2023/07/30 12:02:00;;;;;;;2.20;1.90;;;;;;;;;;4930953;28;20420;-90
2023/07/30 12:04:29;;;;;;;2.77;2.20;;;;;;;;;;4929736;29;20411;-90
2023/07/30 12:06:56;;;;;;;2.93;1.90;;;;;;;;;;4933524;28;20505;-92
2023/07/30 12:09:22;;;;;;;4.90;2.90;;;;;;;;;;4918331;29;20429;-92
2023/07/30 12:12:05;;;;;;;4.20;2.40;;;;;;;;;;4948415;28;20429;-92
2023/07/30 12:15:02;;;;;;;3.43;2.30;;;;;;;;;;4918365;29;20468;-91
2023/07/30 12:17:31;;;;;;;2.40;2.00;;;;;;;;;;4907146;29;20424;-92
2023/07/30 12:20:06;;;;;;;2.67;2.13;;;;;;;;;;4933967;28;20432;-93
2023/07/30 12:22:45;;;;;;;;;;;;;;;;;;;;;
2023/07/30 12:25:11;;;;;;;4.00;2.13;;;;;;;;;;4953855;29;20498;-91
2023/07/30 12:27:38;;;;;;;2.80;2.20;;;;;;;;;;4977415;28;20530;-92
2023/07/30 12:30:08;;;;;;;3.07;2.03;;;;;;;;;;4972518;28;20496;-92
2023/07/30 12:32:42;;;;;;;3.20;2.60;;;;;;;;;;4983021;28;21080;-92
2023/07/30 12:35:08;;;;;;;4.57;2.00;;;;;;;;;;4964407;28;20406;-90
2023/07/30 12:37:41;;;;;;;2.60;2.20;;;;;;;;;;4969004;28;20442;-93
2023/07/30 12:40:08;;;;;;;4.40;2.30;;;;;;;;;;5121409;22;20479;-92
2023/07/30 12:42:34;;;;;;;2.83;2.20;;;;;;;;;;5046380;28;20422;-89
2023/07/30 14:15:52;;;;;;;3.90;1.90;;;;;;;;;;5018738;28;21039;-88
2023/07/30 14:18:18;;;;;;;4.87;2.20;;;;;;;;;;5016843;28;20417;-90
2023/07/30 14:20:44;;;;;;;3.43;2.20;;;;;;;;;;5002542;28;20525;-89
2023/07/30 14:23:11;;;;;;;2.97;1.80;;;;;;;;;;4998191;28;20529;-89
2023/07/30 14:25:42;;;;;;;3.50;1.90;;;;;;;;;;4994954;28;20427;-90
2023/07/30 14:28:11;;;;;;;2.60;1.80;;;;;;;;;;5017001;28;20503;-90
2023/07/30 14:30:43;;;;;;;2.90;2.17;;;;;;;;;;4998646;28;20444;-91
2023/07/30 14:33:13;;;;;;;3.40;2.47;;;;;;;;;;4975780;28;20426;-89
2023/07/30 14:35:39;;;;;;;3.30;1.93;;;;;;;;;;4963566;28;20484;-87
2023/07/30 14:38:06;;;;;;;3.37;1.97;;;;;;;;;;4950710;28;20579;-89
2023/07/30 14:40:32;;;;;;;3.60;1.97;;;;;;;;;;4963453;28;20438;-90
2023/07/30 14:42:58;;;;;;;3.00;1.83;;;;;;;;;;4938755;29;20439;-89
2023/07/30 14:45:24;;;;;;;3.33;1.80;;;;;;;;;;4924325;29;20490;-90
2023/07/30 14:47:50;;;;;;;3.97;1.97;;;;;;;;;;4924773;29;20545;-89
2023/07/30 14:50:16;;;;;;;3.60;2.00;;;;;;;;;;4925012;29;20518;-90
2023/07/30 14:52:43;;;;;;;3.50;2.50;;;;;;;;;;4924542;29;20448;-90
2023/07/30 14:55:11;;;;;;;3.70;1.67;;;;;;;;;;4933823;29;20508;-90
2023/07/30 14:57:37;;;;;;;6.70;2.20;;;;;;;;;;4927818;29;20444;-90
2023/07/30 15:00:03;;;;;;;4.40;1.90;;;;;;;;;;4923314;29;20447;-90
2023/07/30 15:02:29;;;;;;;4.43;2.57;;;;;;;;;;4943607;28;20466;-92
2023/07/30 15:04:55;;;;;;;3.67;2.07;;;;;;;;;;4975728;28;20437;-90
2023/07/30 15:07:25;;;;;;;5.97;1.80;;;;;;;;;;4964426;28;20871;-90
2023/07/30 15:09:52;;;;;;;3.73;2.13;;;;;;;;;;4965270;28;20421;-88
2023/07/30 15:12:18;;;;;;;3.00;1.60;;;;;;;;;;4981316;28;20445;-92
2023/07/30 15:14:44;;;;;;;6.83;3.20;;;;;;;;;;4964348;28;20976;-90
2023/07/30 15:17:10;;;;;;;3.50;2.00;;;;;;;;;;4967939;28;20419;-92
2023/07/30 15:19:36;;;;;;;3.73;1.80;;;;;;;;;;4966393;28;21324;-91
2023/07/30 15:22:02;;;;;;;5.27;1.70;;;;;;;;;;5003342;28;20459;-91
2023/07/30 15:24:28;;;;;;;4.40;2.93;;;;;;;;;;5018383;28;20412;-91
2023/07/30 15:26:55;;;;;;;5.80;1.77;;;;;;;;;;5006670;28;20460;-91
2023/07/30 15:29:21;;;;;;;3.77;1.93;;;;;;;;;;5009690;28;20439;-89
2023/07/30 15:31:49;;;;;;;6.60;2.40;;;;;;;;;;4999853;28;20926;-88
2023/07/30 15:34:15;;;;;;;4.70;1.67;;;;;;;;;;5010015;28;20431;-91
2023/07/30 15:36:41;;;;;;;3.80;1.63;;;;;;;;;;5001272;28;20456;-91
2023/07/30 15:39:07;;;;;;;4.73;1.47;;;;;;;;;;5011113;28;20455;-89
2023/07/30 15:41:33;;;;;;;3.80;1.50;;;;;;;;;;4999934;28;20445;-90
2023/07/30 15:43:59;;;;;;;3.40;1.80;;;;;;;;;;5001742;28;20424;-90
2023/07/30 15:46:25;;;;;;;3.70;1.50;;;;;;;;;;5002188;28;20517;-91
2023/07/30 15:48:51;;;;;;;2.53;1.63;;;;;;;;;;5013106;28;20444;-91
2023/07/30 15:51:17;;;;;;;3.93;1.60;;;;;;;;;;5002225;28;20468;-91
2023/07/30 15:53:44;;;;;;;6.20;1.60;;;;;;;;;;5001463;28;20877;-90
2023/07/30 15:56:10;;;;;;;4.60;1.30;;;;;;;;;;5010219;28;20490;-89
2023/07/30 15:58:36;;;;;;;4.27;1.67;;;;;;;;;;5000897;28;20494;-91
2023/07/30 16:01:05;;;;;;;5.80;1.80;;;;;;;;;;5006072;28;20982;-92
2023/07/30 16:03:35;;;;;;;5.63;1.70;;;;;;;;;;4997535;28;20498;-90
2023/07/30 16:06:10;;;;;;;3.50;2.10;;;;;;;;;;4994399;28;20454;-88
2023/07/30 16:08:36;;;;;;;2.47;1.30;;;;;;;;;;5009886;28;20427;-89
2023/07/30 16:11:06;;;;;;;2.57;1.93;;;;;;;;;;5009458;28;21161;-88
2023/07/30 16:13:32;;;;;;;3.10;1.20;;;;;;;;;;5017770;28;20433;-90
2023/07/30 16:16:07;;;;;;;5.93;2.00;;;;;;;;;;4994128;28;20940;-88